Time;durP1;ratioP1;P1;durP2;ratioP2;P2;SDS_P1;SDS_P2;PMS_P1;PMS_P2;Temp;Humidity;BMP_temperature;BMP_pressure;BME280_temperature;BME280_humidity;BME280_pressure;Samples;Min_cycle;Max_cycle;Signal;HPM_P1;HPM_P2
2021/01/21 00:02:05;;;;;;;;;;;9.20;59.70;;;;;;5106237;28;19963;-67
2021/01/21 00:04:31;;;;;;;;;;;9.20;59.90;;;;;;5106126;28;19904;-68
2021/01/21 00:06:56;;;;;;;;;;;9.20;59.50;;;;;;5106134;28;19900;-67
2021/01/21 00:09:22;;;;;;;;;;;9.20;59.90;;;;;;5106116;28;19907;-66
2021/01/21 00:11:47;;;;;;;;;;;9.20;59.70;;;;;;5106048;28;19978;-66
2021/01/21 00:14:13;;;;;;;;;;;9.20;59.80;;;;;;5106069;28;19908;-66
2021/01/21 00:16:38;;;;;;;;;;;9.20;59.90;;;;;;5105914;28;19943;-67
2021/01/21 00:19:04;;;;;;;;;;;9.20;59.90;;;;;;5105945;28;19915;-68
2021/01/21 00:21:30;;;;;;;;;;;9.20;60.00;;;;;;5105909;28;19923;-67
2021/01/21 00:23:58;;;;;;;;;;;9.30;59.90;;;;;;5105606;28;20010;-68
2021/01/21 00:26:24;;;;;;;;;;;9.30;59.80;;;;;;5105829;28;19919;-68
2021/01/21 00:28:49;;;;;;;;;;;9.30;60.00;;;;;;5106001;28;19912;-69
2021/01/21 00:31:18;;;;;;;;;;;9.30;59.80;;;;;;5105659;28;20197;-67
2021/01/21 00:33:44;;;;;;;;;;;9.20;60.40;;;;;;5105639;28;19975;-67
2021/01/21 00:36:09;;;;;;;;;;;9.20;59.70;;;;;;5105575;28;19930;-66
2021/01/21 00:38:35;;;;;;;;;;;9.20;59.80;;;;;;5105534;28;19972;-68
2021/01/21 00:41:00;;;;;;;;;;;9.20;59.70;;;;;;5105500;28;19945;-67
2021/01/21 00:43:26;;;;;;;;;;;9.20;59.60;;;;;;5105360;28;19904;-68
2021/01/21 00:45:51;;;;;;;;;;;9.30;59.80;;;;;;5105326;28;19900;-68
2021/01/21 00:48:18;;;;;;;;;;;9.30;59.70;;;;;;5105350;28;19912;-68
2021/01/21 00:50:44;;;;;;;;;;;9.20;59.80;;;;;;5105297;28;20368;-66
2021/01/21 00:53:10;;;;;;;;;;;9.20;59.90;;;;;;5105271;28;19900;-66
2021/01/21 00:55:35;;;;;;;;;;;9.20;59.80;;;;;;5105187;28;19907;-68
2021/01/21 00:58:01;;;;;;;;;;;9.20;59.90;;;;;;5105157;28;19945;-67
2021/01/21 01:00:26;;;;;;;;;;;9.20;59.80;;;;;;5105107;28;19904;-69
2021/01/21 01:02:52;;;;;;;;;;;9.20;59.60;;;;;;5104330;28;19900;-67
2021/01/21 01:05:18;;;;;;;;;;;9.20;59.90;;;;;;5104992;28;19908;-66
2021/01/21 01:07:43;;;;;;;;;;;9.30;59.90;;;;;;5104987;28;19908;-66
2021/01/21 01:10:09;;;;;;;;;;;9.20;59.70;;;;;;5104928;28;20235;-66
2021/01/21 01:12:36;;;;;;;;;;;9.20;59.80;;;;;;5104844;28;19930;-66
2021/01/21 01:15:03;;;;;;;;;;;9.20;59.80;;;;;;5104819;28;19915;-67
2021/01/21 01:17:29;;;;;;;;;;;9.20;59.80;;;;;;5104757;28;20204;-66
2021/01/21 01:19:54;;;;;;;;;;;9.30;59.70;;;;;;5104774;28;19907;-66
2021/01/21 01:22:20;;;;;;;;;;;9.30;59.80;;;;;;5104706;28;19966;-67
2021/01/21 01:24:46;;;;;;;;;;;9.30;59.80;;;;;;5104355;28;19912;-66
2021/01/21 01:27:11;;;;;;;;;;;9.30;59.60;;;;;;5104614;28;19900;-67
2021/01/21 01:29:38;;;;;;;;;;;9.20;59.80;;;;;;5104580;28;20212;-66
2021/01/21 01:32:03;;;;;;;;;;;9.20;59.80;;;;;;5104520;28;19908;-67
2021/01/21 01:34:29;;;;;;;;;;;9.20;59.90;;;;;;5104403;28;19931;-67
2021/01/21 01:36:54;;;;;;;;;;;9.20;59.80;;;;;;5104390;28;19951;-65
2021/01/21 01:39:21;;;;;;;;;;;9.20;60.60;;;;;;5104353;28;19900;-66
2021/01/21 01:41:46;;;;;;;;;;;9.30;59.80;;;;;;5104303;28;19942;-67
2021/01/21 01:44:12;;;;;;;;;;;9.30;59.50;;;;;;5104152;28;19904;-66
2021/01/21 01:46:37;;;;;;;;;;;9.30;59.70;;;;;;5104222;28;19980;-68
2021/01/21 01:49:03;;;;;;;;;;;9.30;59.70;;;;;;5104164;28;19945;-66
2021/01/21 01:51:29;;;;;;;;;;;9.30;59.80;;;;;;5104082;28;19906;-67
2021/01/21 01:53:54;;;;;;;;;;;9.30;59.80;;;;;;5104144;28;19947;-66
2021/01/21 01:56:20;;;;;;;;;;;9.30;59.70;;;;;;5104021;28;20211;-66
2021/01/21 01:58:45;;;;;;;;;;;9.30;59.80;;;;;;5103976;28;20231;-66
2021/01/21 02:01:11;;;;;;;;;;;9.20;59.70;;;;;;5103919;28;19908;-68
2021/01/21 02:03:36;;;;;;;;;;;9.20;59.80;;;;;;5103860;28;19938;-68
2021/01/21 02:06:03;;;;;;;;;;;9.20;59.90;;;;;;5103824;28;20349;-66
2021/01/21 02:08:29;;;;;;;;;;;9.20;59.70;;;;;;5103763;28;19900;-68
2021/01/21 02:10:59;;;;;;;;;;;9.30;59.80;;;;;;5103735;28;19930;-66
2021/01/21 02:13:46;;;;;;;;;;;9.30;59.80;;;;;;5103372;28;19907;-67
2021/01/21 02:16:29;;;;;;;;;;;9.30;59.70;;;;;;5103616;28;19967;-67
2021/01/21 02:19:01;;;;;;;;;;;9.30;59.80;;;;;;5103609;28;19931;-67
2021/01/21 02:21:45;;;;;;;;;;;9.30;59.70;;;;;;5103591;28;19899;-67
2021/01/21 02:24:19;;;;;;;;;;;9.30;59.60;;;;;;5103231;28;20244;-68
2021/01/21 02:26:49;;;;;;;;;;;9.30;59.60;;;;;;5103417;28;19907;-66
2021/01/21 02:29:14;;;;;;;;;;;9.30;59.70;;;;;;5103442;28;19908;-65
2021/01/21 02:31:56;;;;;;;;;;;9.30;59.80;;;;;;5103286;28;19900;-68
2021/01/21 02:34:37;;;;;;;;;;;9.30;59.90;;;;;;5102424;28;19900;-67
2021/01/21 02:37:03;;;;;;;;;;;9.20;59.70;;;;;;5103235;28;19900;-66
2021/01/21 02:39:29;;;;;;;;;;;9.20;59.90;;;;;;5103213;28;19979;-67
2021/01/21 02:41:54;;;;;;;;;;;9.30;59.70;;;;;;5103165;28;19912;-64
2021/01/21 02:44:20;;;;;;;;;;;9.30;59.80;;;;;;5103075;28;19919;-67
2021/01/21 02:46:47;;;;;;;;;;;9.30;59.80;;;;;;5103076;28;19900;-66
2021/01/21 02:49:14;;;;;;;;;;;9.30;59.80;;;;;;5103072;28;19930;-68
2021/01/21 02:51:41;;;;;;;;;;;9.20;59.80;;;;;;5103076;28;19908;-65
2021/01/21 02:54:19;;;;;;;;;;;9.20;59.80;;;;;;5102975;28;19900;-68
2021/01/21 02:56:45;;;;;;;;;;;9.20;59.80;;;;;;5102999;28;19912;-64
2021/01/21 02:59:16;;;;;;;;;;;9.30;59.70;;;;;;5102911;28;20118;-68
2021/01/21 03:01:43;;;;;;;;;;;9.30;59.60;;;;;;5102876;28;19900;-67
2021/01/21 03:04:09;;;;;;;;;;;9.30;59.70;;;;;;5102716;28;20150;-66
2021/01/21 03:06:36;;;;;;;;;;;9.30;59.70;;;;;;5102921;28;19919;-66
2021/01/21 03:09:03;;;;;;;;;;;9.30;59.70;;;;;;5101621;28;19904;-67
2021/01/21 03:11:28;;;;;;;;;;;9.30;59.40;;;;;;5102732;28;19915;-67
2021/01/21 03:13:54;;;;;;;;;;;9.30;59.40;;;;;;5102796;28;19943;-66
2021/01/21 03:16:19;;;;;;;;;;;9.30;59.50;;;;;;5102751;28;19908;-66
2021/01/21 03:18:49;;;;;;;;;;;9.30;59.70;;;;;;5102677;28;19907;-67
2021/01/21 03:21:16;;;;;;;;;;;9.20;59.70;;;;;;5102704;28;19900;-69
2021/01/21 03:23:44;;;;;;;;;;;9.30;59.70;;;;;;5102413;28;19919;-67
2021/01/21 03:26:10;;;;;;;;;;;9.20;59.70;;;;;;5104998;28;19907;-66
2021/01/21 03:28:36;;;;;;;;;;;9.20;59.80;;;;;;5106882;28;19900;-66
2021/01/21 03:31:01;;;;;;;;;;;9.20;59.70;;;;;;5106810;28;20250;-67
2021/01/21 03:33:27;;;;;;;;;;;9.30;59.60;;;;;;5106736;28;19900;-68
2021/01/21 03:35:52;;;;;;;;;;;9.20;59.70;;;;;;5106744;28;19908;-66
2021/01/21 03:38:18;;;;;;;;;;;9.30;59.90;;;;;;5106655;28;20200;-64
2021/01/21 03:40:43;;;;;;;;;;;9.30;59.70;;;;;;5106633;28;19954;-68
2021/01/21 03:43:09;;;;;;;;;;;9.30;59.40;;;;;;5106498;28;19912;-66
2021/01/21 03:45:34;;;;;;;;;;;9.30;59.50;;;;;;5106571;28;20179;-64
2021/01/21 03:48:00;;;;;;;;;;;9.30;59.40;;;;;;5106497;28;19900;-66
2021/01/21 03:50:25;;;;;;;;;;;9.30;59.50;;;;;;5106508;28;19900;-67
2021/01/21 03:52:51;;;;;;;;;;;9.30;59.40;;;;;;5106397;28;19900;-67
2021/01/21 03:55:16;;;;;;;;;;;9.30;59.60;;;;;;5106404;28;20192;-67
2021/01/21 03:57:42;;;;;;;;;;;9.20;59.60;;;;;;5106353;28;20136;-66
2021/01/21 04:00:08;;;;;;;;;;;9.20;59.70;;;;;;5106265;28;19907;-65
2021/01/21 04:02:33;;;;;;;;;;;9.20;59.70;;;;;;5106204;28;20211;-68
2021/01/21 04:04:59;;;;;;;;;;;9.30;59.90;;;;;;5106100;28;20242;-68
2021/01/21 04:07:24;;;;;;;;;;;9.30;59.60;;;;;;5106095;28;20093;-64
2021/01/21 04:09:50;;;;;;;;;;;9.30;59.60;;;;;;5106100;28;19932;-66
2021/01/21 04:12:15;;;;;;;;;;;9.30;59.30;;;;;;5106092;28;19904;-68
2021/01/21 04:14:41;;;;;;;;;;;9.30;59.30;;;;;;5106008;28;19936;-67
2021/01/21 04:17:07;;;;;;;;;;;9.30;59.40;;;;;;5105961;28;19899;-68
2021/01/21 04:19:32;;;;;;;;;;;9.30;59.40;;;;;;5105937;28;19912;-65
2021/01/21 04:21:58;;;;;;;;;;;9.30;59.60;;;;;;5105894;28;19971;-64
2021/01/21 04:24:23;;;;;;;;;;;9.30;59.60;;;;;;5105653;28;19987;-68
2021/01/21 04:26:49;;;;;;;;;;;9.30;59.80;;;;;;5105761;28;19949;-66
2021/01/21 04:29:14;;;;;;;;;;;9.30;59.60;;;;;;5105730;28;19946;-66
2021/01/21 04:31:40;;;;;;;;;;;9.30;59.60;;;;;;5105685;28;19900;-65
2021/01/21 04:34:05;;;;;;;;;;;9.30;59.60;;;;;;5105616;28;20096;-68
2021/01/21 04:36:31;;;;;;;;;;;9.30;59.80;;;;;;5104884;28;20373;-66
2021/01/21 04:38:57;;;;;;;;;;;9.30;59.60;;;;;;5105129;28;19900;-67
2021/01/21 04:41:23;;;;;;;;;;;9.30;59.70;;;;;;5104398;28;19907;-66
2021/01/21 04:43:49;;;;;;;;;;;9.30;59.60;;;;;;5105334;28;19908;-66
2021/01/21 04:46:14;;;;;;;;;;;9.30;59.50;;;;;;5105378;28;20212;-64
2021/01/21 04:48:40;;;;;;;;;;;9.30;59.50;;;;;;5105360;28;19899;-66
2021/01/21 04:51:06;;;;;;;;;;;9.30;59.60;;;;;;5105293;28;20078;-66
2021/01/21 04:53:33;;;;;;;;;;;9.30;59.30;;;;;;5105240;28;19904;-66
2021/01/21 04:56:01;;;;;;;;;;;9.30;59.70;;;;;;5105173;28;19983;-66
2021/01/21 04:58:32;;;;;;;;;;;9.20;59.70;;;;;;5105165;28;19900;-68
2021/01/21 05:01:01;;;;;;;;;;;9.30;59.60;;;;;;5105349;28;19908;-65
2021/01/21 05:03:27;;;;;;;;;;;9.30;59.60;;;;;;5104959;28;19904;-67
2021/01/21 05:05:53;;;;;;;;;;;9.30;59.60;;;;;;5105037;28;19950;-66
2021/01/21 05:08:19;;;;;;;;;;;9.30;59.60;;;;;;5104931;28;19908;-65
2021/01/21 05:10:45;;;;;;;;;;;9.30;59.60;;;;;;5104873;28;19907;-65
2021/01/21 05:13:11;;;;;;;;;;;9.30;59.60;;;;;;5104925;28;19900;-68
2021/01/21 05:15:37;;;;;;;;;;;9.30;59.50;;;;;;5104837;28;19922;-68
2021/01/21 05:18:02;;;;;;;;;;;9.30;59.50;;;;;;5104788;28;19908;-66
2021/01/21 05:20:28;;;;;;;;;;;9.30;59.40;;;;;;5104669;28;19935;-65
2021/01/21 05:22:58;;;;;;;;;;;9.30;59.40;;;;;;5104509;28;19942;-66
2021/01/21 05:25:24;;;;;;;;;;;9.30;59.50;;;;;;5104663;28;19936;-65
2021/01/21 05:27:50;;;;;;;;;;;9.30;59.50;;;;;;5104852;28;19998;-65
2021/01/21 05:30:16;;;;;;;;;;;9.30;59.70;;;;;;5104516;28;19908;-67
2021/01/21 05:32:44;;;;;;;;;;;9.30;59.50;;;;;;5104459;28;19900;-67
2021/01/21 05:35:11;;;;;;;;;;;9.30;59.70;;;;;;5104407;28;19954;-67
2021/01/21 05:37:38;;;;;;;;;;;9.30;59.70;;;;;;5104402;28;19908;-68
2021/01/21 05:40:05;;;;;;;;;;;9.30;59.40;;;;;;5104392;28;20371;-67
2021/01/21 05:42:35;;;;;;;;;;;9.30;59.40;;;;;;5103150;28;20156;-66
2021/01/21 05:45:01;;;;;;;;;;;9.30;59.60;;;;;;5104207;28;19945;-68
2021/01/21 05:47:26;;;;;;;;;;;9.30;59.60;;;;;;5104187;28;19957;-66
2021/01/21 05:49:52;;;;;;;;;;;9.30;59.60;;;;;;5103937;28;20196;-68
2021/01/21 05:52:19;;;;;;;;;;;9.30;59.70;;;;;;5104111;28;19912;-65
2021/01/21 05:54:44;;;;;;;;;;;9.30;59.60;;;;;;5104071;28;20231;-62
2021/01/21 05:57:11;;;;;;;;;;;9.30;59.60;;;;;;5104007;28;19900;-66
2021/01/21 05:59:37;;;;;;;;;;;9.30;59.70;;;;;;5103964;28;19900;-67
2021/01/21 06:02:02;;;;;;;;;;;9.30;59.70;;;;;;5103929;28;20092;-66
2021/01/21 06:04:28;;;;;;;;;;;9.30;59.50;;;;;;5103770;28;19953;-66
2021/01/21 06:06:54;;;;;;;;;;;9.30;59.50;;;;;;5103811;28;19900;-66
2021/01/21 06:09:30;;;;;;;;;;;9.30;59.60;;;;;;5104003;28;19908;-68
2021/01/21 06:11:59;;;;;;;;;;;9.30;59.40;;;;;;5103807;28;20181;-67
2021/01/21 06:14:25;;;;;;;;;;;9.30;59.50;;;;;;5103693;28;19908;-65
2021/01/21 06:16:53;;;;;;;;;;;9.30;59.50;;;;;;5103871;28;19900;-66
2021/01/21 06:19:19;;;;;;;;;;;9.30;59.60;;;;;;5103598;28;19900;-67
2021/01/21 06:21:52;;;;;;;;;;;9.30;59.50;;;;;;5103499;28;19908;-66
2021/01/21 06:24:18;;;;;;;;;;;9.30;59.70;;;;;;5103219;28;19923;-63
2021/01/21 06:26:47;;;;;;;;;;;9.30;59.70;;;;;;5103500;28;19900;-65
2021/01/21 06:29:18;;;;;;;;;;;9.30;59.60;;;;;;5103447;28;19943;-65
2021/01/21 06:31:43;;;;;;;;;;;9.30;59.40;;;;;;5103352;28;19953;-67
2021/01/21 06:34:10;;;;;;;;;;;9.40;59.50;;;;;;5103328;28;19908;-68
2021/01/21 06:36:40;;;;;;;;;;;9.40;59.30;;;;;;5103272;28;20130;-66
2021/01/21 06:39:08;;;;;;;;;;;9.30;60.00;;;;;;5103222;28;19907;-66
2021/01/21 06:41:34;;;;;;;;;;;9.40;59.50;;;;;;5103215;28;19961;-68
2021/01/21 06:44:00;;;;;;;;;;;9.30;59.70;;;;;;5103101;28;20187;-66
2021/01/21 06:46:26;;;;;;;;;;;9.30;59.70;;;;;;5103136;28;19986;-66
2021/01/21 06:48:51;;;;;;;;;;;9.30;59.70;;;;;;5103106;28;19900;-67
2021/01/21 06:51:18;;;;;;;;;;;9.30;59.80;;;;;;5103007;28;19900;-68
2021/01/21 06:53:45;;;;;;;;;;;9.40;59.80;;;;;;5103010;28;19980;-67
2021/01/21 06:56:11;;;;;;;;;;;9.30;59.70;;;;;;5102911;28;19900;-67
2021/01/21 06:58:47;;;;;;;;;;;9.40;59.70;;;;;;5102921;28;19938;-68
2021/01/21 07:01:37;;;;;;;;;;;9.40;59.60;;;;;;5102304;28;19907;-68
2021/01/21 07:04:08;;;;;;;;;;;9.40;59.50;;;;;;5099806;28;19911;-68
2021/01/21 07:07:12;;;;;;;;;;;9.40;59.50;;;;;;5102834;28;19900;-66
2021/01/21 07:09:39;;;;;;;;;;;9.40;59.50;;;;;;5080453;28;19912;-66
2021/01/21 07:12:05;;;;;;;;;;;9.30;59.60;;;;;;5098690;28;20116;-66
2021/01/21 07:14:32;;;;;;;;;;;9.40;59.50;;;;;;5102778;28;19942;-68
2021/01/21 07:17:03;;;;;;;;;;;9.40;59.80;;;;;;5102640;28;19911;-67
2021/01/21 07:19:31;;;;;;;;;;;9.40;59.60;;;;;;5102678;28;19908;-68
2021/01/21 07:21:57;;;;;;;;;;;9.40;59.60;;;;;;5102622;28;19942;-67
2021/01/21 07:24:23;;;;;;;;;;;9.40;59.60;;;;;;5102355;28;19920;-68
2021/01/21 07:26:52;;;;;;;;;;;9.40;59.70;;;;;;5102570;28;19908;-66
2021/01/21 07:29:21;;;;;;;;;;;9.40;59.50;;;;;;5102593;28;19907;-66
2021/01/21 07:31:53;;;;;;;;;;;9.40;59.30;;;;;;5102557;28;19963;-67
2021/01/21 07:34:21;;;;;;;;;;;9.40;59.50;;;;;;5102490;28;19954;-67
2021/01/21 07:36:47;;;;;;;;;;;9.40;59.50;;;;;;5102490;28;19907;-68
2021/01/21 07:39:12;;;;;;;;;;;9.40;59.30;;;;;;5102483;28;20002;-67
2021/01/21 07:41:41;;;;;;;;;;;9.40;59.60;;;;;;5102414;28;19949;-64
2021/01/21 07:44:06;;;;;;;;;;;9.40;59.50;;;;;;5102389;28;19903;-68
2021/01/21 07:46:32;;;;;;;;;;;9.40;59.60;;;;;;5102418;28;19900;-68
2021/01/21 07:49:16;;;;;;;;;;;9.40;59.70;;;;;;5102503;28;19908;-65
2021/01/21 07:51:41;;;;;;;;;;;9.40;59.60;;;;;;5102377;28;20219;-68
2021/01/21 07:54:10;;;;;;;;;;;9.50;59.20;;;;;;5102375;28;19900;-67
2021/01/21 07:56:39;;;;;;;;;;;9.50;59.30;;;;;;5102321;28;19900;-65
2021/01/21 07:59:04;;;;;;;;;;;9.50;59.50;;;;;;5102297;28;20161;-65
2021/01/21 08:01:30;;;;;;;;;;;9.50;59.40;;;;;;5102311;28;19900;-67
2021/01/21 08:03:56;;;;;;;;;;;9.50;59.50;;;;;;5102153;28;19904;-65
2021/01/21 08:06:25;;;;;;;;;;;9.50;59.50;;;;;;5102246;28;19900;-66
2021/01/21 08:08:51;;;;;;;;;;;9.50;59.40;;;;;;5102183;28;19900;-67
2021/01/21 08:11:21;;;;;;;;;;;9.50;59.40;;;;;;5102944;28;19900;-66
2021/01/21 08:13:47;;;;;;;;;;;9.60;59.10;;;;;;5106031;28;19900;-66
2021/01/21 08:16:14;;;;;;;;;;;9.60;59.20;;;;;;5106050;28;19907;-68
2021/01/21 08:18:39;;;;;;;;;;;9.60;59.20;;;;;;5105897;28;19915;-66
2021/01/21 08:21:38;;;;;;;;;;;9.70;59.10;;;;;;5105939;28;19903;-67
2021/01/21 08:24:08;;;;;;;;;;;9.70;58.80;;;;;;5093538;28;19920;-66
2021/01/21 08:26:35;;;;;;;;;;;9.70;58.90;;;;;;5105802;28;19900;-66
2021/01/21 08:29:01;;;;;;;;;;;9.70;59.00;;;;;;5105750;28;19900;-66
2021/01/21 08:31:47;;;;;;;;;;;9.70;59.00;;;;;;5105712;28;19914;-68
2021/01/21 08:34:17;;;;;;;;;;;9.70;58.80;;;;;;5105654;28;19922;-68
2021/01/21 08:36:43;;;;;;;;;;;9.70;59.00;;;;;;5105646;28;19900;-66
2021/01/21 08:39:10;;;;;;;;;;;9.70;59.00;;;;;;5105518;28;19919;-66
2021/01/21 08:41:36;;;;;;;;;;;9.70;59.00;;;;;;5105494;28;19907;-65
2021/01/21 08:44:01;;;;;;;;;;;9.80;59.10;;;;;;5105394;28;20193;-68
2021/01/21 08:46:28;;;;;;;;;;;9.80;58.90;;;;;;5104166;28;19961;-67
2021/01/21 08:48:54;;;;;;;;;;;9.80;59.00;;;;;;5105386;28;19908;-66
2021/01/21 08:51:41;;;;;;;;;;;9.80;59.10;;;;;;5105297;28;19908;-67
2021/01/21 08:54:13;;;;;;;;;;;9.80;59.20;;;;;;5105309;28;19904;-66
2021/01/21 08:56:39;;;;;;;;;;;9.80;59.00;;;;;;5105196;28;19971;-66
2021/01/21 08:59:23;;;;;;;;;;;9.90;58.80;;;;;;5105141;28;19907;-64
2021/01/21 09:01:48;;;;;;;;;;;9.90;59.00;;;;;;5105056;28;20107;-67
2021/01/21 09:04:28;;;;;;;;;;;9.90;59.00;;;;;;5105003;28;19911;-64
2021/01/21 09:06:57;;;;;;;;;;;9.90;59.00;;;;;;5105081;28;19945;-65
2021/01/21 09:09:25;;;;;;;;;;;9.90;59.50;;;;;;5104943;28;19931;-67
2021/01/21 09:11:50;;;;;;;;;;;9.90;58.80;;;;;;5103310;28;19900;-67
2021/01/21 09:14:18;;;;;;;;;;;9.90;58.80;;;;;;5104862;28;20096;-67
2021/01/21 09:16:49;;;;;;;;;;;9.90;58.60;;;;;;5104787;28;19908;-66
2021/01/21 09:19:15;;;;;;;;;;;10.00;58.70;;;;;;5104788;28;19950;-64
2021/01/21 09:22:00;;;;;;;;;;;10.10;58.80;;;;;;5104795;28;19900;-67
2021/01/21 09:24:26;;;;;;;;;;;10.00;58.80;;;;;;5103918;28;19912;-64
2021/01/21 09:27:10;;;;;;;;;;;10.00;58.80;;;;;;5104643;28;19954;-65
2021/01/21 09:29:51;;;;;;;;;;;10.00;58.40;;;;;;5104576;28;19900;-67
2021/01/21 09:32:18;;;;;;;;;;;10.00;58.60;;;;;;5104560;28;19914;-66
2021/01/21 09:34:51;;;;;;;;;;;10.00;58.60;;;;;;5104501;28;19912;-67
2021/01/21 09:37:16;;;;;;;;;;;10.00;58.50;;;;;;5104432;28;19954;-67
2021/01/21 09:39:42;;;;;;;;;;;10.10;58.40;;;;;;5104379;28;20188;-66
2021/01/21 09:42:08;;;;;;;;;;;10.10;58.80;;;;;;5104298;28;19908;-64
2021/01/21 09:44:33;;;;;;;;;;;10.10;58.50;;;;;;5104248;28;19938;-67
2021/01/21 09:46:59;;;;;;;;;;;10.20;58.20;;;;;;5104255;28;19923;-66
2021/01/21 09:49:24;;;;;;;;;;;10.20;58.60;;;;;;5104184;28;19915;-66
2021/01/21 09:51:50;;;;;;;;;;;10.20;58.60;;;;;;5104150;28;19941;-66
2021/01/21 09:54:15;;;;;;;;;;;10.20;58.80;;;;;;5104106;28;19907;-66
2021/01/21 09:56:44;;;;;;;;;;;10.20;58.20;;;;;;5102876;28;19967;-67
2021/01/21 09:59:11;;;;;;;;;;;10.20;58.30;;;;;;5104033;28;19947;-66
2021/01/21 10:01:36;;;;;;;;;;;10.30;58.50;;;;;;5103963;28;19900;-67
2021/01/21 10:04:02;;;;;;;;;;;10.30;58.20;;;;;;5103798;28;19910;-66
2021/01/21 10:06:27;;;;;;;;;;;10.30;58.00;;;;;;5103842;28;19950;-63
2021/01/21 10:08:53;;;;;;;;;;;10.30;58.00;;;;;;5103829;28;19935;-66
2021/01/21 10:11:18;;;;;;;;;;;10.30;58.20;;;;;;5103767;28;19907;-67
2021/01/21 10:13:44;;;;;;;;;;;10.30;58.10;;;;;;5103759;28;19908;-66
2021/01/21 10:16:10;;;;;;;;;;;10.40;58.00;;;;;;5103674;28;19900;-67
2021/01/21 10:18:35;;;;;;;;;;;10.40;57.70;;;;;;5103662;28;19907;-67
2021/01/21 10:21:01;;;;;;;;;;;10.40;57.60;;;;;;5103594;28;20188;-66
2021/01/21 10:23:26;;;;;;;;;;;10.50;57.60;;;;;;5103327;28;19957;-63
2021/01/21 10:25:52;;;;;;;;;;;10.50;57.70;;;;;;5103579;28;19944;-66
2021/01/21 10:28:17;;;;;;;;;;;10.50;57.60;;;;;;5102289;28;20159;-66
2021/01/21 10:30:43;;;;;;;;;;;10.50;57.50;;;;;;5103480;28;19943;-66
2021/01/21 10:33:08;;;;;;;;;;;10.50;57.90;;;;;;5103351;28;19942;-67
2021/01/21 10:35:34;;;;;;;;;;;10.60;57.90;;;;;;5102495;28;19908;-67
2021/01/21 10:38:01;;;;;;;;;;;10.60;57.60;;;;;;5103273;28;19915;-66
2021/01/21 10:40:26;;;;;;;;;;;10.60;57.40;;;;;;5103258;28;19922;-66
2021/01/21 10:42:52;;;;;;;;;;;10.60;57.30;;;;;;5103126;28;19900;-66
2021/01/21 10:45:17;;;;;;;;;;;10.60;57.40;;;;;;5103158;28;19908;-66
2021/01/21 10:47:43;;;;;;;;;;;10.60;57.30;;;;;;5103121;28;19908;-66
2021/01/21 10:50:09;;;;;;;;;;;10.60;57.30;;;;;;5103092;28;20365;-65
2021/01/21 10:52:34;;;;;;;;;;;10.60;57.40;;;;;;5103048;28;19908;-65
2021/01/21 10:55:00;;;;;;;;;;;10.60;57.50;;;;;;5102992;28;20261;-65
2021/01/21 10:57:25;;;;;;;;;;;10.60;57.50;;;;;;5103015;28;19947;-67
2021/01/21 10:59:51;;;;;;;;;;;10.60;57.50;;;;;;5102963;28;19900;-66
2021/01/21 11:02:16;;;;;;;;;;;10.50;57.60;;;;;;5102896;28;20111;-68
2021/01/21 11:04:42;;;;;;;;;;;10.60;57.60;;;;;;5102813;28;19935;-67
2021/01/21 11:07:08;;;;;;;;;;;10.60;57.90;;;;;;5102781;28;19908;-63
2021/01/21 11:09:36;;;;;;;;;;;10.60;57.70;;;;;;5102843;28;20203;-66
2021/01/21 11:12:03;;;;;;;;;;;10.60;58.00;;;;;;5102765;28;20178;-65
2021/01/21 11:14:28;;;;;;;;;;;10.60;57.80;;;;;;5102739;28;19967;-66
2021/01/21 11:16:54;;;;;;;;;;;10.70;57.70;;;;;;5102761;28;19908;-65
2021/01/21 11:19:19;;;;;;;;;;;10.70;57.50;;;;;;5102689;28;19908;-65
2021/01/21 11:21:45;;;;;;;;;;;10.70;57.30;;;;;;5102671;28;19907;-65
2021/01/21 11:24:10;;;;;;;;;;;10.70;57.90;;;;;;5102469;28;19912;-67
2021/01/21 11:26:36;;;;;;;;;;;10.70;57.90;;;;;;5102598;28;19900;-66
2021/01/21 11:29:01;;;;;;;;;;;10.70;57.60;;;;;;5102632;28;19900;-66
2021/01/21 11:31:27;;;;;;;;;;;10.70;57.70;;;;;;5102647;28;19904;-67
2021/01/21 11:33:52;;;;;;;;;;;10.70;57.70;;;;;;5102584;28;20081;-67
2021/01/21 11:36:19;;;;;;;;;;;10.60;57.60;;;;;;5102584;28;20196;-66
2021/01/21 11:38:44;;;;;;;;;;;10.70;57.60;;;;;;5102522;28;19922;-65
2021/01/21 11:41:10;;;;;;;;;;;10.70;57.50;;;;;;5101271;28;19900;-67
2021/01/21 11:43:35;;;;;;;;;;;10.80;57.60;;;;;;5102394;28;19904;-66
2021/01/21 11:46:01;;;;;;;;;;;10.80;57.60;;;;;;5102839;28;19953;-67
2021/01/21 11:48:26;;;;;;;;;;;10.80;57.70;;;;;;5106527;28;19904;-66
2021/01/21 11:50:52;;;;;;;;;;;10.90;57.10;;;;;;5106501;28;20188;-67
2021/01/21 11:53:18;;;;;;;;;;;11.00;57.10;;;;;;5106399;28;19961;-63
2021/01/21 11:55:43;;;;;;;;;;;11.00;57.00;;;;;;5106426;28;20161;-66
2021/01/21 11:58:09;;;;;;;;;;;11.00;57.20;;;;;;5106348;28;20199;-68
2021/01/21 12:00:34;;;;;;;;;;;11.00;57.10;;;;;;5106365;28;19908;-65
2021/01/21 12:03:00;;;;;;;;;;;11.00;57.40;;;;;;5104980;28;19907;-65
2021/01/21 12:05:25;;;;;;;;;;;10.90;57.20;;;;;;5106218;28;19922;-66
2021/01/21 12:07:51;;;;;;;;;;;10.90;56.90;;;;;;5106187;28;19900;-66
2021/01/21 12:10:19;;;;;;;;;;;10.90;57.10;;;;;;5106117;28;19975;-66
2021/01/21 12:12:45;;;;;;;;;;;10.90;57.70;;;;;;5104910;28;20112;-65
2021/01/21 12:15:11;;;;;;;;;;;10.80;57.50;;;;;;5106005;28;20069;-66
2021/01/21 12:17:36;;;;;;;;;;;10.80;57.60;;;;;;5105925;28;19957;-66
2021/01/21 12:20:02;;;;;;;;;;;10.90;57.50;;;;;;5105902;28;19900;-66
2021/01/21 12:22:28;;;;;;;;;;;11.00;57.50;;;;;;5105863;28;20238;-65
2021/01/21 12:24:54;;;;;;;;;;;11.00;57.50;;;;;;5105680;28;19919;-66
2021/01/21 12:27:19;;;;;;;;;;;10.90;57.70;;;;;;5105791;28;19915;-64
2021/01/21 12:29:45;;;;;;;;;;;10.90;57.70;;;;;;5105759;28;19907;-65
2021/01/21 12:32:10;;;;;;;;;;;10.90;57.70;;;;;;5105655;28;19907;-66
2021/01/21 12:34:36;;;;;;;;;;;10.90;57.60;;;;;;5105654;28;19900;-66
2021/01/21 12:37:02;;;;;;;;;;;10.90;57.80;;;;;;5104409;28;20096;-66
2021/01/21 12:39:27;;;;;;;;;;;10.90;57.70;;;;;;5105512;28;19911;-67
2021/01/21 12:41:53;;;;;;;;;;;10.80;57.60;;;;;;5105529;28;19916;-65
2021/01/21 12:44:19;;;;;;;;;;;10.80;57.80;;;;;;5105365;28;19915;-66
2021/01/21 12:46:44;;;;;;;;;;;10.80;57.90;;;;;;5105424;28;19915;-63
2021/01/21 12:49:10;;;;;;;;;;;10.90;57.90;;;;;;5105412;28;19900;-66
2021/01/21 12:51:36;;;;;;;;;;;10.90;57.70;;;;;;5105350;28;19907;-65
2021/01/21 12:54:02;;;;;;;;;;;10.90;57.40;;;;;;5105276;28;20199;-67
2021/01/21 12:56:27;;;;;;;;;;;11.00;57.40;;;;;;5105239;28;19908;-66
2021/01/21 12:58:53;;;;;;;;;;;11.00;57.30;;;;;;5104283;28;19908;-66
2021/01/21 13:01:18;;;;;;;;;;;11.10;57.20;;;;;;5105135;28;19912;-67
2021/01/21 13:03:44;;;;;;;;;;;11.10;57.70;;;;;;5105083;28;19950;-66
2021/01/21 13:06:09;;;;;;;;;;;11.10;57.50;;;;;;5105059;28;19971;-65
2021/01/21 13:08:35;;;;;;;;;;;11.10;57.30;;;;;;5105014;28;19900;-66
2021/01/21 13:11:01;;;;;;;;;;;11.10;57.30;;;;;;5104978;28;19938;-68
2021/01/21 13:13:28;;;;;;;;;;;11.10;57.30;;;;;;5104904;28;19954;-67
2021/01/21 13:15:54;;;;;;;;;;;11.10;57.50;;;;;;5104943;28;19915;-66
2021/01/21 13:18:20;;;;;;;;;;;11.10;57.40;;;;;;5104810;28;19908;-65
2021/01/21 13:20:46;;;;;;;;;;;11.30;56.90;;;;;;5104814;28;19971;-68
2021/01/21 13:23:12;;;;;;;;;;;11.30;56.80;;;;;;5104494;28;19908;-66
2021/01/21 13:25:37;;;;;;;;;;;11.20;57.20;;;;;;5104717;28;20298;-68
2021/01/21 13:28:03;;;;;;;;;;;11.10;57.30;;;;;;5104678;28;19908;-67
2021/01/21 13:30:29;;;;;;;;;;;11.00;57.40;;;;;;5104583;28;19994;-66
2021/01/21 13:32:54;;;;;;;;;;;11.00;57.60;;;;;;5104532;28;19915;-65
2021/01/21 13:35:20;;;;;;;;;;;10.90;58.00;;;;;;5104453;28;19907;-66
2021/01/21 13:37:45;;;;;;;;;;;10.80;58.20;;;;;;5104457;28;19907;-67
2021/01/21 13:40:11;;;;;;;;;;;10.80;58.20;;;;;;5104400;28;20006;-67
2021/01/21 13:42:36;;;;;;;;;;;10.80;58.20;;;;;;5104339;28;19976;-66
2021/01/21 13:45:02;;;;;;;;;;;10.80;58.50;;;;;;5104240;28;19935;-67
2021/01/21 13:47:28;;;;;;;;;;;10.70;58.70;;;;;;5104169;28;19974;-66
2021/01/21 13:49:53;;;;;;;;;;;10.60;58.80;;;;;;5104241;28;19908;-66
2021/01/21 13:52:19;;;;;;;;;;;10.60;59.00;;;;;;5104164;28;19912;-68
2021/01/21 13:54:44;;;;;;;;;;;10.60;59.10;;;;;;5104094;28;20200;-63
2021/01/21 13:57:10;;;;;;;;;;;10.60;59.20;;;;;;5104028;28;19907;-66
2021/01/21 13:59:36;;;;;;;;;;;10.50;59.30;;;;;;5104020;28;19903;-65
2021/01/21 14:02:02;;;;;;;;;;;10.50;59.50;;;;;;5103962;28;19907;-68
2021/01/21 14:04:27;;;;;;;;;;;10.50;59.60;;;;;;5103860;28;20391;-67
2021/01/21 14:06:53;;;;;;;;;;;10.40;59.60;;;;;;5103901;28;20208;-67
2021/01/21 14:09:18;;;;;;;;;;;10.40;59.70;;;;;;5102534;28;19912;-64
2021/01/21 14:11:45;;;;;;;;;;;10.40;59.80;;;;;;5103802;28;19946;-67
2021/01/21 14:14:14;;;;;;;;;;;10.30;59.80;;;;;;5103745;28;19906;-69
2021/01/21 14:16:39;;;;;;;;;;;10.40;59.90;;;;;;5103656;28;19922;-66
2021/01/21 14:19:05;;;;;;;;;;;10.30;60.00;;;;;;5103642;28;19904;-66
2021/01/21 14:21:31;;;;;;;;;;;10.30;60.00;;;;;;5103547;28;20207;-68
2021/01/21 14:23:56;;;;;;;;;;;10.30;60.10;;;;;;5103330;28;19982;-67
2021/01/21 14:26:22;;;;;;;;;;;10.30;60.20;;;;;;5103488;28;19941;-67